TimeEST,TemperatureF,Dew PointF,Humidity,Sea Level PressureIn,VisibilityMPH,Wind Direction,Wind SpeedMPH,Gust SpeedMPH,PrecipitationIn,Events,Conditions,WindDirDegrees,DateUTC
12:15 AM,32.5,26.1,77,29.78,3.0,NW,6.9,-,N/A,Snow,Light Snow,320,2013-03-06 05:15:00
12:35 AM,32.5,23.9,70,29.78,4.0,WNW,8.1,27.6,N/A,Snow,Light Snow,290,2013-03-06 05:35:00
12:55 AM,32.4,23.0,68,29.77,5.0,WNW,9.2,16.1,0.01,Snow,Light Snow,300,2013-03-06 05:55:00
1:15 AM,32.4,21.7,65,29.77,10.0,NW,6.9,-,N/A,Snow,Light Snow,310,2013-03-06 06:15:00
1:35 AM,32.0,22.8,69,29.76,5.0,NW,12.7,17.3,N/A,Snow,Light Snow,320,2013-03-06 06:35:00
1:55 AM,31.1,24.3,76,29.77,3.0,NW,15.0,18.4,N/A,Snow,Light Snow,310,2013-03-06 06:55:00
2:15 AM,30.2,25.2,82,29.77,1.5,NW,12.7,19.6,N/A,Snow,Light Snow,310,2013-03-06 07:15:00
2:35 AM,30.4,23.9,77,29.77,3.0,NNW,8.1,16.1,N/A,Snow,Light Snow,330,2013-03-06 07:35:00
2:55 AM,28.4,24.3,84,29.78,0.8,NNW,12.7,21.9,N/A,Snow,Snow,330,2013-03-06 07:55:00
3:15 AM,28.8,19.0,67,29.77,10.0,NW,13.8,27.6,N/A,Snow,Light Snow,310,2013-03-06 08:15:00
3:35 AM,28.8,18.7,66,29.78,7.0,WNW,11.5,18.4,N/A,Snow,Light Snow,300,2013-03-06 08:35:00
3:55 AM,28.0,18.5,67,29.79,5.0,NW,11.5,20.7,N/A,Snow,Light Snow,320,2013-03-06 08:55:00
4:15 AM,26.6,20.3,77,29.79,2.0,NW,11.5,19.6,N/A,Snow,Light Snow,310,2013-03-06 09:15:00
4:35 AM,26.6,20.1,77,29.80,2.5,NW,16.1,21.9,N/A,Snow,Light Snow,310,2013-03-06 09:35:00
4:55 AM,27.0,19.2,73,29.80,3.0,NW,10.4,20.7,N/A,Snow,Light Snow,320,2013-03-06 09:55:00
5:15 AM,27.3,18.7,70,29.81,4.0,NW,11.5,24.2,N/A,Snow,Light Snow,310,2013-03-06 10:15:00
5:55 AM,27.5,18.5,69,29.83,5.0,NW,12.7,23.0,N/A,Snow,Light Snow,320,2013-03-06 10:55:00
6:15 AM,27.5,18.9,70,29.83,3.0,NW,15.0,24.2,N/A,Snow,Light Snow,310,2013-03-06 11:15:00
6:35 AM,27.7,18.9,69,29.83,4.0,WNW,12.7,24.2,N/A,Snow,Light Snow,300,2013-03-06 11:35:00
6:55 AM,28.0,19.0,69,29.83,4.0,WNW,15.0,21.9,N/A,Snow,Light Snow,290,2013-03-06 11:55:00
7:15 AM,27.5,19.6,72,29.84,2.5,NW,11.5,25.3,N/A,Snow,Light Snow,310,2013-03-06 12:15:00
7:35 AM,27.9,19.4,71,29.85,1.5,WNW,16.1,28.8,N/A,Snow,Light Snow,300,2013-03-06 12:35:00
7:55 AM,28.2,19.2,69,29.86,1.8,WNW,11.5,18.4,N/A,Snow,Light Snow,290,2013-03-06 12:55:00
8:15 AM,28.0,19.8,71,29.87,1.5,Calm,Calm,-,N/A,Snow,Light Snow,0,2013-03-06 13:15:00
8:35 AM,28.6,20.3,71,29.88,2.5,North,4.6,-,N/A,Snow,Light Snow,350,2013-03-06 13:35:00
8:55 AM,29.1,19.8,68,29.88,2.5,NNW,8.1,21.9,N/A,Snow,Light Snow,330,2013-03-06 13:55:00
9:15 AM,29.7,19.9,67,29.90,4.0,North,8.1,24.2,N/A,Snow,Light Snow,360,2013-03-06 14:15:00
9:35 AM,30.4,20.1,66,29.92,5.0,North,9.2,-,N/A,Snow,Light Snow,350,2013-03-06 14:35:00
9:55 AM,30.9,20.8,66,29.92,4.0,WNW,13.8,20.7,N/A,Snow,Light Snow,300,2013-03-06 14:55:00
10:15 AM,31.5,20.5,64,29.93,10.0,NW,9.2,25.3,N/A,,Overcast,310,2013-03-06 15:15:00
10:35 AM,32.0,20.7,63,29.93,10.0,NW,8.1,21.9,N/A,,Overcast,310,2013-03-06 15:35:00
10:55 AM,30.7,20.1,65,29.94,10.0,WNW,10.4,16.1,N/A,,Overcast,300,2013-03-06 15:55:00
11:15 AM,30.9,21.2,67,29.95,2.5,NNW,13.8,21.9,N/A,Snow,Light Snow,330,2013-03-06 16:15:00
11:35 AM,30.7,21.6,69,29.96,4.0,WNW,10.4,25.3,N/A,Snow,Light Snow,300,2013-03-06 16:35:00
11:55 AM,32.0,22.5,68,29.97,7.0,WNW,9.2,-,N/A,Snow,Light Snow,290,2013-03-06 16:55:00
12:15 PM,32.0,21.4,65,29.97,10.0,NW,12.7,31.1,N/A,,Overcast,310,2013-03-06 17:15:00
12:35 PM,32.2,22.3,67,29.98,5.0,NW,13.8,17.3,N/A,,Haze,310,2013-03-06 17:35:00
12:55 PM,32.5,23.4,69,29.99,5.0,NW,10.4,23.0,N/A,,Haze,320,2013-03-06 17:55:00
1:15 PM,33.1,23.7,68,29.99,5.0,WNW,10.4,23.0,N/A,,Haze,300,2013-03-06 18:15:00
1:35 PM,32.2,22.6,68,29.98,5.0,NW,12.7,20.7,N/A,,Haze,320,2013-03-06 18:35:00
1:55 PM,32.0,23.0,69,29.99,5.0,NNW,9.2,-,N/A,,Haze,330,2013-03-06 18:55:00
2:15 PM,32.0,22.6,68,29.99,7.0,WNW,8.1,-,N/A,,Overcast,300,2013-03-06 19:15:00
2:35 PM,31.8,22.1,67,30.00,10.0,NNW,6.9,16.1,N/A,,Overcast,340,2013-03-06 19:35:00
2:55 PM,32.0,22.1,67,30.01,10.0,NW,4.6,18.4,N/A,,Overcast,320,2013-03-06 19:55:00
3:15 PM,32.0,22.8,69,30.01,10.0,North,5.8,-,N/A,,Overcast,350,2013-03-06 20:15:00
3:35 PM,32.2,22.8,68,30.02,10.0,NW,10.4,18.4,N/A,,Overcast,320,2013-03-06 20:35:00
3:55 PM,32.2,23.2,69,30.03,10.0,NNW,15.0,20.7,N/A,,Overcast,330,2013-03-06 20:55:00
4:15 PM,32.9,23.5,68,30.03,10.0,NNW,10.4,18.4,N/A,,Overcast,330,2013-03-06 21:15:00
4:35 PM,32.9,23.7,69,30.04,10.0,WNW,9.2,18.4,N/A,,Overcast,300,2013-03-06 21:35:00
4:55 PM,32.4,23.5,70,30.05,10.0,North,12.7,21.9,N/A,,Overcast,350,2013-03-06 21:55:00
5:15 PM,32.2,23.7,71,30.06,10.0,NW,4.6,19.6,N/A,,Overcast,320,2013-03-06 22:15:00
5:35 PM,32.0,23.9,72,30.06,10.0,NW,6.9,18.4,N/A,,Overcast,320,2013-03-06 22:35:00
5:55 PM,32.2,24.1,72,30.07,10.0,North,8.1,-,N/A,,Overcast,350,2013-03-06 22:55:00
6:15 PM,32.0,23.7,71,30.08,10.0,NNW,6.9,-,N/A,,Overcast,330,2013-03-06 23:15:00
6:35 PM,32.0,23.7,71,30.08,10.0,West,8.1,-,N/A,,Overcast,280,2013-03-06 23:35:00
6:55 PM,32.0,23.7,71,30.09,10.0,NW,4.6,18.4,N/A,,Overcast,320,2013-03-06 23:55:00
7:15 PM,32.0,23.9,72,30.10,10.0,WNW,8.1,-,N/A,,Overcast,300,2013-03-07 00:15:00
7:35 PM,32.0,23.5,71,30.11,10.0,Calm,Calm,-,N/A,,Overcast,0,2013-03-07 00:35:00
7:55 PM,32.0,23.7,71,30.10,10.0,NNW,4.6,-,N/A,,Overcast,330,2013-03-07 00:55:00
8:15 PM,32.0,23.7,71,30.10,10.0,NNW,5.8,-,N/A,,Mostly Cloudy,330,2013-03-07 01:15:00
8:35 PM,31.8,23.9,73,30.10,10.0,NW,6.9,-,N/A,,Overcast,310,2013-03-07 01:35:00
8:55 PM,32.0,23.5,71,30.11,10.0,NW,9.2,-,N/A,,Overcast,310,2013-03-07 01:55:00
9:15 PM,32.0,23.7,71,30.11,10.0,NW,9.2,-,N/A,,Overcast,320,2013-03-07 02:15:00
9:35 PM,31.6,23.7,73,30.12,10.0,North,3.5,-,N/A,,Mostly Cloudy,350,2013-03-07 02:35:00
9:55 PM,31.5,23.5,73,30.12,10.0,NW,10.4,-,N/A,,Mostly Cloudy,310,2013-03-07 02:55:00
10:15 PM,31.1,23.0,72,30.13,10.0,NW,9.2,-,N/A,,Scattered Clouds,310,2013-03-07 03:15:00
10:35 PM,31.1,23.0,72,30.13,10.0,NW,6.9,-,N/A,,Clear,310,2013-03-07 03:35:00
10:55 PM,31.3,23.0,71,30.14,10.0,NW,8.1,-,N/A,,Mostly Cloudy,310,2013-03-07 03:55:00
11:15 PM,31.1,23.0,72,30.13,10.0,NNW,5.8,-,N/A,,Scattered Clouds,330,2013-03-07 04:15:00
11:35 PM,31.1,23.0,72,30.14,10.0,NW,9.2,-,N/A,,Mostly Cloudy,310,2013-03-07 04:35:00
11:55 PM,30.9,22.8,72,30.14,10.0,Calm,Calm,-,N/A,,Scattered Clouds,0,2013-03-07 04:55:00